Trabzon — 9HA2783 — position and weather

sailwx.info

Track history (hours):
 
Tides and Currents Weather Stations Pressure Air Temp Water Temp Dewpoint Dewpoint Depression Visibility Wind Speed Wind Dir Waves Ship Positions

Trabzon

Last reported at 2014-Nov-23 06:31 UTC. Time now 2014-Nov-24 16:27 UTC.
Position N 37°53' W 076°09'.

Length 229 m; draft 14.4 m.

Type: Cargo ship. MMSI: 215679000.

Date/timePositionNaut miles runAvg speedWind from/ knotsBaromVisibWave heightAir tempDewpointWater temp
2014-Nov-23 06:31N 37°53' W 076°09'1111.1
2014-Nov-23 05:33N 38°03' W 076°13'4711.6
2014-Nov-23 01:29N 38°50' W 076°24'1011.2
2014-Nov-23 00:33N 39°00' W 076°23'8 7.9
2014-Nov-22 23:33N 39°08' W 076°24'7 7.1
2014-Nov-22 22:33N 39°12' W 076°31'3 2.7
2014-Nov-22 21:29N 39°13' W 076°35'0 0.0
2014-Nov-22 20:32N 39°13' W 076°35'0 0.0
2014-Nov-22 19:32N 39°13' W 076°35'0 0.0
2014-Nov-22 18:32N 39°13' W 076°35'0 0.0
2014-Nov-22 17:32N 39°13' W 076°35'0 0.0
2014-Nov-22 16:32N 39°13' W 076°35'0 0.0
2014-Nov-22 15:32N 39°13' W 076°35'0 0.0
2014-Nov-22 14:32N 39°13' W 076°35'0 0.0
2014-Nov-22 13:32N 39°13' W 076°35'0 0.0
2014-Nov-22 12:32N 39°13' W 076°35'0 0.0
2014-Nov-22 11:32N 39°13' W 076°35'0 0.0
2014-Nov-22 10:32N 39°13' W 076°35'0 0.0
2014-Nov-22 09:32N 39°13' W 076°35'0 0.0
2014-Nov-22 08:32N 39°13' W 076°35'0 0.0
2014-Nov-22 07:32N 39°13' W 076°35'0 0.0
2014-Nov-22 06:32N 39°13' W 076°35'0 0.0
2014-Nov-22 05:32N 39°13' W 076°35'0 0.0
2014-Nov-22 04:32N 39°13' W 076°35'0 0.0
2014-Nov-22 03:32N 39°13' W 076°35'0 0.0
2014-Nov-22 02:32N 39°13' W 076°35'0 0.0
2014-Nov-22 01:32N 39°13' W 076°35'0 0.0
2014-Nov-22 00:32N 39°13' W 076°35'0 0.0
2014-Nov-21 23:32N 39°13' W 076°35'0 0.0
2014-Nov-21 22:32N 39°13' W 076°35'0 0.0
2014-Nov-21 21:32N 39°13' W 076°35'0 0.0
2014-Nov-21 20:32N 39°13' W 076°35'0 0.0
2014-Nov-21 19:32N 39°13' W 076°35'0 0.0
2014-Nov-21 18:32N 39°13' W 076°35'0 0.0
2014-Nov-21 17:32N 39°13' W 076°35'0 0.0
2014-Nov-21 16:32N 39°13' W 076°35'0 0.0
2014-Nov-21 15:32N 39°13' W 076°35'0 0.3
2014-Nov-21 14:33N 39°13' W 076°34'7 6.6
2014-Nov-21 13:33N 39°11' W 076°26'1211.8
2014-Nov-21 12:32N 38°59' W 076°23'1313.1
2014-Nov-21 11:33N 38°46' W 076°26'3812.3
2014-Nov-21 08:31N 38°10' W 076°16'1212.4
2014-Nov-21 07:33N 37°58' W 076°12'  
2014-Nov-16 21:30N 44°19' W 063°26'1212.6
2014-Nov-16 20:33N 44°31' W 063°31'8 7.6
2014-Nov-16 19:34N 44°38' W 063°33'0 0.0
2014-Nov-16 18:31N 44°38' W 063°33'0 0.0
2014-Nov-16 17:31N 44°38' W 063°33'0 0.0
2014-Nov-16 16:22N 44°38' W 063°33'0 0.0
2014-Nov-16 15:25N 44°38' W 063°33'0 0.0
2014-Nov-16 14:25N 44°38' W 063°33'0 0.0
2014-Nov-16 13:25N 44°38' W 063°33'0 0.1
2014-Nov-16 12:28N 44°38' W 063°33'0 0.0
2014-Nov-16 11:28N 44°38' W 063°33'0 0.0
2014-Nov-16 10:28N 44°38' W 063°33'0 0.0
2014-Nov-16 09:28N 44°38' W 063°33'0 0.0
2014-Nov-16 08:31N 44°38' W 063°33'0 0.0
2014-Nov-16 07:28N 44°38' W 063°33'0 0.2
2014-Nov-16 06:33N 44°38' W 063°33'7 6.6
2014-Nov-16 05:33N 44°32' W 063°31'7 7.3
2014-Nov-16 04:33N 44°28' W 063°22'  
Track history (hours):
 
Tides and Currents Weather Stations Pressure Air Temp Water Temp Dewpoint Dewpoint Depression Visibility Wind Speed Wind Dir Waves Ship Positions

Trabzon

Last reported at 2014-Nov-23 06:31 UTC. Time now 2014-Nov-24 16:27 UTC.
Position N 37°53' W 076°09'.

Length 229 m; draft 14.4 m.

Type: Cargo ship. MMSI: 215679000.

Date/timePositionNaut miles runAvg speedWind from/ knotsBaromVisibWave heightAir tempDewpointWater temp
2014-Nov-23 06:31N 37°53' W 076°09'1111.1
2014-Nov-23 05:33N 38°03' W 076°13'4711.6
2014-Nov-23 01:29N 38°50' W 076°24'1011.2
2014-Nov-23 00:33N 39°00' W 076°23'8 7.9
2014-Nov-22 23:33N 39°08' W 076°24'7 7.1
2014-Nov-22 22:33N 39°12' W 076°31'3 2.7
2014-Nov-22 21:29N 39°13' W 076°35'0 0.0
2014-Nov-22 20:32N 39°13' W 076°35'0 0.0
2014-Nov-22 19:32N 39°13' W 076°35'0 0.0
2014-Nov-22 18:32N 39°13' W 076°35'0 0.0
2014-Nov-22 17:32N 39°13' W 076°35'0 0.0
2014-Nov-22 16:32N 39°13' W 076°35'0 0.0
2014-Nov-22 15:32N 39°13' W 076°35'0 0.0
2014-Nov-22 14:32N 39°13' W 076°35'0 0.0
2014-Nov-22 13:32N 39°13' W 076°35'0 0.0
2014-Nov-22 12:32N 39°13' W 076°35'0 0.0
2014-Nov-22 11:32N 39°13' W 076°35'0 0.0
2014-Nov-22 10:32N 39°13' W 076°35'0 0.0
2014-Nov-22 09:32N 39°13' W 076°35'0 0.0
2014-Nov-22 08:32N 39°13' W 076°35'0 0.0
2014-Nov-22 07:32N 39°13' W 076°35'0 0.0
2014-Nov-22 06:32N 39°13' W 076°35'0 0.0
2014-Nov-22 05:32N 39°13' W 076°35'0 0.0
2014-Nov-22 04:32N 39°13' W 076°35'0 0.0
2014-Nov-22 03:32N 39°13' W 076°35'0 0.0
2014-Nov-22 02:32N 39°13' W 076°35'0 0.0
2014-Nov-22 01:32N 39°13' W 076°35'0 0.0
2014-Nov-22 00:32N 39°13' W 076°35'0 0.0
2014-Nov-21 23:32N 39°13' W 076°35'0 0.0
2014-Nov-21 22:32N 39°13' W 076°35'0 0.0
2014-Nov-21 21:32N 39°13' W 076°35'0 0.0
2014-Nov-21 20:32N 39°13' W 076°35'0 0.0
2014-Nov-21 19:32N 39°13' W 076°35'0 0.0
2014-Nov-21 18:32N 39°13' W 076°35'0 0.0
2014-Nov-21 17:32N 39°13' W 076°35'0 0.0
2014-Nov-21 16:32N 39°13' W 076°35'0 0.0
2014-Nov-21 15:32N 39°13' W 076°35'0 0.3
2014-Nov-21 14:33N 39°13' W 076°34'7 6.6
2014-Nov-21 13:33N 39°11' W 076°26'1211.8
2014-Nov-21 12:32N 38°59' W 076°23'1313.1
2014-Nov-21 11:33N 38°46' W 076°26'3812.3
2014-Nov-21 08:31N 38°10' W 076°16'1212.4
2014-Nov-21 07:33N 37°58' W 076°12'  
2014-Nov-16 21:30N 44°19' W 063°26'1212.6
2014-Nov-16 20:33N 44°31' W 063°31'8 7.6
2014-Nov-16 19:34N 44°38' W 063°33'0 0.0
2014-Nov-16 18:31N 44°38' W 063°33'0 0.0
2014-Nov-16 17:31N 44°38' W 063°33'0 0.0
2014-Nov-16 16:22N 44°38' W 063°33'0 0.0
2014-Nov-16 15:25N 44°38' W 063°33'0 0.0
2014-Nov-16 14:25N 44°38' W 063°33'0 0.0
2014-Nov-16 13:25N 44°38' W 063°33'0 0.1
2014-Nov-16 12:28N 44°38' W 063°33'0 0.0
2014-Nov-16 11:28N 44°38' W 063°33'0 0.0
2014-Nov-16 10:28N 44°38' W 063°33'0 0.0
2014-Nov-16 09:28N 44°38' W 063°33'0 0.0
2014-Nov-16 08:31N 44°38' W 063°33'0 0.0
2014-Nov-16 07:28N 44°38' W 063°33'0 0.2
2014-Nov-16 06:33N 44°38' W 063°33'7 6.6
2014-Nov-16 05:33N 44°32' W 063°31'7 7.3
2014-Nov-16 04:33N 44°28' W 063°22'  

Dump ship's entire track history